createdAt,value
2017-10-15T00:00:13.871Z,60
2017-10-15T00:05:33.577Z,60
2017-10-15T00:10:53.643Z,60
2017-10-15T00:16:13.676Z,60
2017-10-15T00:21:48.715Z,59.9
2017-10-15T00:27:23.543Z,59.9
2017-10-15T00:32:28.743Z,59.9
2017-10-15T00:37:48.891Z,59.9
2017-10-15T00:42:54.463Z,59.9
2017-10-15T00:48:14.275Z,59.9
2017-10-15T00:53:19.489Z,59.8
2017-10-15T00:58:54.663Z,59.8
2017-10-15T01:04:14.593Z,59.8
2017-10-15T01:09:34.815Z,59.8
2017-10-15T01:15:09.970Z,59.8
2017-10-15T01:20:45.222Z,59.8
2017-10-15T01:26:05.155Z,59.7
2017-10-15T01:31:10.395Z,59.7
2017-10-15T01:36:16.797Z,59.7
2017-10-15T01:41:22.700Z,59.7
2017-10-15T01:46:56.713Z,59.7
2017-10-15T01:52:02.009Z,59.7
2017-10-15T01:57:22.565Z,59.8
2017-10-15T02:02:27.647Z,59.8
2017-10-15T02:07:47.833Z,59.8
2017-10-15T02:12:53.306Z,59.8
2017-10-15T02:17:58.410Z,59.8
2017-10-15T02:23:03.587Z,59.8
2017-10-15T02:28:08.483Z,59.7
2017-10-15T02:33:13.342Z,59.7
2017-10-15T02:38:33.111Z,59.7
2017-10-15T02:43:38.976Z,59.7
2017-10-15T02:48:59.452Z,59.7
2017-10-15T02:54:04.287Z,59.7
2017-10-15T02:59:24.498Z,59.7
2017-10-15T03:04:29.754Z,59.7
2017-10-15T03:09:50.312Z,59.7
2017-10-15T03:14:56.140Z,59.7
2017-10-15T03:20:16.907Z,59.7
2017-10-15T03:25:51.937Z,59.6
2017-10-15T03:31:11.483Z,59.6
2017-10-15T03:36:31.290Z,59.6
2017-10-15T03:42:06.145Z,59.6
2017-10-15T03:47:40.540Z,59.6
2017-10-15T03:53:01.027Z,59.6
2017-10-15T03:58:21.791Z,59.6
2017-10-15T04:03:42.733Z,59.5
2017-10-15T04:09:02.870Z,59.5
2017-10-15T04:14:37.580Z,59.5
2017-10-15T04:19:42.776Z,59.4
2017-10-15T04:25:02.939Z,59.4
2017-10-15T04:30:37.303Z,59.4
2017-10-15T04:35:57.977Z,59.4
2017-10-15T04:41:17.543Z,59.4
2017-10-15T04:46:37.456Z,59.4
2017-10-15T04:51:57.507Z,59.3
2017-10-15T04:57:03.489Z,59.3
2017-10-15T05:02:23.204Z,59.3
2017-10-15T05:07:29.314Z,59.3
2017-10-15T05:12:34.610Z,59.3
2017-10-15T05:17:40.449Z,59.2
2017-10-15T05:22:46.923Z,59.2
2017-10-15T05:27:52.556Z,59.2
2017-10-15T05:32:57.649Z,59.2
2017-10-15T05:38:03.484Z,59.2
2017-10-15T05:43:23.198Z,59.2
2017-10-15T05:48:44.121Z,59.1
2017-10-15T05:54:04.003Z,59.1
2017-10-15T05:59:08.399Z,59.1
2017-10-15T06:04:28.332Z,59.1
2017-10-15T06:09:33.719Z,59.1
2017-10-15T06:14:53.971Z,59
2017-10-15T06:19:59.262Z,59
2017-10-15T06:25:20.158Z,59
2017-10-15T06:30:40.751Z,59
2017-10-15T06:36:00.865Z,58.9
2017-10-15T06:41:21.121Z,59
2017-10-15T06:46:41.320Z,59
2017-10-15T06:52:01.069Z,58.9
2017-10-15T06:57:20.633Z,58.9
2017-10-15T07:02:41.027Z,58.9
2017-10-15T07:08:01.581Z,58.9
2017-10-15T07:13:06.386Z,59
2017-10-15T07:18:27.130Z,59
2017-10-15T07:23:47.492Z,59
2017-10-15T07:28:53.225Z,59
2017-10-15T07:33:59.648Z,59.1
2017-10-15T07:39:04.740Z,59.1
2017-10-15T07:44:11.739Z,59.1
2017-10-15T07:49:31.825Z,59.1
2017-10-15T07:54:52.539Z,59
2017-10-15T08:00:13.477Z,58.9
2017-10-15T08:05:34.082Z,58.8
2017-10-15T08:10:53.652Z,58.5
2017-10-15T08:15:58.879Z,58
2017-10-15T08:21:18.644Z,57.5
2017-10-15T08:26:23.458Z,57.2
2017-10-15T08:31:43.145Z,56.8
2017-10-15T08:37:18.266Z,56.5
2017-10-15T08:42:38.679Z,56.2
2017-10-15T08:47:58.397Z,56
2017-10-15T08:53:19.344Z,55.9
2017-10-15T08:58:39.102Z,56
2017-10-15T09:03:59.622Z,56.1
2017-10-15T09:09:19.514Z,56.3
2017-10-15T09:14:39.597Z,56.4
2017-10-15T09:20:00.198Z,56.4
2017-10-15T09:25:20.379Z,56.3
2017-10-15T09:30:25.968Z,56.2
2017-10-15T09:36:01.500Z,56.2
2017-10-15T09:41:21.416Z,56.1
2017-10-15T09:46:27.555Z,56.1
2017-10-15T09:51:33.210Z,56
2017-10-15T09:56:38.992Z,56.1
2017-10-15T10:01:43.600Z,56.1
2017-10-15T10:06:48.959Z,56.1
2017-10-15T10:12:23.367Z,56.1
2017-10-15T10:17:28.213Z,56.1
2017-10-15T10:22:33.707Z,56.2
2017-10-15T10:27:38.932Z,56.2
2017-10-15T10:32:59.013Z,56.2
2017-10-15T10:38:04.794Z,56.3
2017-10-15T10:43:40.813Z,56.3
2017-10-15T10:48:45.948Z,56.3
2017-10-15T10:54:05.915Z,56.3
2017-10-15T10:59:26.921Z,56.4
2017-10-15T11:04:47.525Z,56.5
2017-10-15T11:10:07.977Z,56.6
2017-10-15T11:15:27.660Z,56.7
2017-10-15T11:20:47.891Z,56.7
2017-10-15T11:26:08.481Z,56.8
2017-10-15T11:31:13.761Z,56.8
2017-10-15T11:36:33.460Z,56.9
2017-10-15T11:41:53.942Z,57
2017-10-15T11:47:13.736Z,57
2017-10-15T11:52:33.488Z,57
2017-10-15T11:57:53.737Z,57.1
2017-10-15T12:02:58.711Z,57.1
2017-10-15T12:08:03.588Z,57.1
2017-10-15T12:13:08.786Z,57.2
2017-10-15T12:18:28.811Z,57.4
2017-10-15T12:23:48.831Z,57.5
2017-10-15T12:29:08.479Z,57.5
2017-10-15T12:34:14.309Z,57.5
2017-10-15T12:39:35.445Z,57.4
2017-10-15T12:44:55.681Z,57.3
2017-10-15T12:50:15.605Z,57.4
2017-10-15T12:55:35.464Z,57.3
2017-10-15T13:00:55.539Z,57.3
2017-10-15T13:06:16.345Z,57.3
2017-10-15T13:11:36.756Z,57.4
2017-10-15T13:16:57.314Z,57.4
2017-10-15T13:22:18.118Z,57.4
2017-10-15T13:27:38.499Z,57.4
2017-10-15T13:32:59.414Z,57.4
2017-10-15T13:38:19.654Z,57.4
2017-10-15T13:43:40.071Z,57.5
2017-10-15T13:48:44.831Z,57.5
2017-10-15T13:54:05.435Z,57.6
2017-10-15T13:59:25.620Z,57.6
2017-10-15T14:04:46.398Z,57.6
2017-10-15T14:10:06.143Z,57.6
2017-10-15T14:15:26.060Z,57.6
2017-10-15T14:20:45.772Z,57.5
2017-10-15T14:26:05.467Z,57.5
2017-10-15T14:31:10.860Z,57.4
2017-10-15T14:36:31.119Z,57.4
2017-10-15T14:41:37.255Z,57.5
2017-10-15T14:46:57.466Z,57.6
2017-10-15T14:52:02.077Z,57.7
2017-10-15T14:57:22.479Z,57.9
2017-10-15T15:02:42.753Z,57.9
2017-10-15T15:08:03.912Z,58
2017-10-15T15:13:24.491Z,58.1
2017-10-15T15:18:44.536Z,58.2
2017-10-15T15:24:04.678Z,58.2
2017-10-15T15:29:25.776Z,58.2
2017-10-15T15:34:45.895Z,58.2
2017-10-15T15:40:06.650Z,58.3
2017-10-15T15:45:11.806Z,59.1
2017-10-15T15:50:31.844Z,59.6
2017-10-15T15:55:51.756Z,59.6
2017-10-15T16:01:12.177Z,59.5
2017-10-15T16:06:47.364Z,59.4
2017-10-15T16:12:07.016Z,59.3
2017-10-15T16:17:41.723Z,59.2
2017-10-15T16:23:01.811Z,59.2
2017-10-15T16:28:22.220Z,59.1
2017-10-15T16:33:42.720Z,59.1
2017-10-15T16:39:03.049Z,59.1
2017-10-15T16:44:23.318Z,59
2017-10-15T16:49:43.635Z,59
2017-10-15T16:55:03.369Z,58.8
2017-10-15T17:00:23.515Z,58.8
2017-10-15T17:05:43.916Z,58.7
2017-10-15T17:11:03.690Z,58.5
2017-10-15T17:16:24.316Z,58.4
2017-10-15T17:21:44.350Z,58.2
2017-10-15T17:27:04.758Z,58.1
2017-10-15T17:32:25.361Z,58.2
2017-10-15T17:37:45.064Z,58.4
2017-10-15T17:42:50.859Z,58.6
2017-10-15T17:48:11.277Z,58.8
2017-10-15T17:53:31.204Z,59.1
2017-10-15T17:58:51.281Z,59.3
2017-10-15T18:03:57.413Z,59.6
2017-10-15T18:09:16.787Z,59.7
2017-10-15T18:14:37.463Z,59.6
2017-10-15T18:19:57.333Z,59.3
2017-10-15T18:25:17.443Z,58.7
2017-10-15T18:30:37.811Z,58
2017-10-15T18:35:57.857Z,57.4
2017-10-15T18:41:17.989Z,57.1
2017-10-15T18:46:38.182Z,57
2017-10-15T18:51:58.095Z,56.9
2017-10-15T18:57:03.194Z,57
2017-10-15T19:02:23.466Z,57.1
2017-10-15T19:07:28.562Z,57.2
2017-10-15T19:12:34.004Z,57.2
2017-10-15T19:17:40.147Z,57.2
2017-10-15T19:22:45.893Z,57.2
2017-10-15T19:27:51.500Z,57.1
2017-10-15T19:32:56.121Z,57.1
2017-10-15T19:38:02.077Z,57
2017-10-15T19:43:08.030Z,57.1
2017-10-15T19:48:13.144Z,57.1
2017-10-15T19:53:18.801Z,57.2
2017-10-15T19:58:23.904Z,57.2
2017-10-15T20:03:29.348Z,57.3
2017-10-15T20:08:35.152Z,57.3
2017-10-15T20:13:40.606Z,57.4
2017-10-15T20:18:46.268Z,57.6
2017-10-15T20:23:51.373Z,57.7
2017-10-15T20:29:11.873Z,57.8
2017-10-15T20:34:17.971Z,57.9
2017-10-15T20:39:37.540Z,57.9
2017-10-15T20:44:43.134Z,58
2017-10-15T20:49:49.295Z,58.1
2017-10-15T20:55:09.438Z,58.1
2017-10-15T21:00:29.560Z,58.2
2017-10-15T21:05:50.039Z,58.3
2017-10-15T21:11:24.677Z,58.3
2017-10-15T21:16:44.760Z,58.4
2017-10-15T21:22:04.914Z,58.4
2017-10-15T21:27:24.879Z,58.5
2017-10-15T21:32:45.016Z,58.5
2017-10-15T21:38:05.106Z,58.5
2017-10-15T21:43:40.386Z,58.5
2017-10-15T21:49:00.285Z,58.5
2017-10-15T21:54:20.666Z,58.4
2017-10-15T21:59:41.183Z,58.4
2017-10-15T22:05:01.427Z,58.4
2017-10-15T22:10:21.283Z,58.4
2017-10-15T22:15:41.668Z,58.3
2017-10-15T22:21:02.266Z,58.3
2017-10-15T22:26:37.246Z,58.3
2017-10-15T22:31:57.353Z,58.3
2017-10-15T22:37:17.408Z,58.3
2017-10-15T22:42:37.519Z,58.3
2017-10-15T22:47:57.231Z,58.3
2017-10-15T22:53:16.941Z,58.3
2017-10-15T22:58:23.016Z,58.2
2017-10-15T23:03:43.565Z,58.2
2017-10-15T23:08:49.540Z,58.2
2017-10-15T23:13:54.145Z,58.2
2017-10-15T23:19:00.128Z,58.2
2017-10-15T23:24:05.564Z,58.2
2017-10-15T23:29:12.041Z,58.2
2017-10-15T23:34:17.197Z,58.1
2017-10-15T23:39:23.332Z,58.1
2017-10-15T23:44:28.412Z,58.1
2017-10-15T23:49:33.998Z,58.1
2017-10-15T23:54:38.941Z,58.1
2017-10-15T23:59:44.526Z,58.1
